sensor_id;sensor_type;location;lat;lon;timestamp;P1;P2;P0
77515;PMS5003;66627;29.424;-98.496;2023-04-06T00:00:26;1;0;
77515;PMS5003;66627;29.424;-98.496;2023-04-06T00:02:51;2;2;
77515;PMS5003;66627;29.424;-98.496;2023-04-06T00:05:16;1;1;
77515;PMS5003;66627;29.424;-98.496;2023-04-06T00:07:41;0;0;
77515;PMS5003;66627;29.424;-98.496;2023-04-06T00:10:07;2;2;
77515;PMS5003;66627;29.424;-98.496;2023-04-06T00:12:32;1;1;
77515;PMS5003;66627;29.424;-98.496;2023-04-06T00:14:58;1;1;
77515;PMS5003;66627;29.424;-98.496;2023-04-06T00:17:22;1;1;
77515;PMS5003;66627;29.424;-98.496;2023-04-06T00:19:47;1;1;
77515;PMS5003;66627;29.424;-98.496;2023-04-06T00:22:12;1;1;
77515;PMS5003;66627;29.424;-98.496;2023-04-06T00:24:38;1;1;
77515;PMS5003;66627;29.424;-98.496;2023-04-06T00:27:03;0;0;
77515;PMS5003;66627;29.424;-98.496;2023-04-06T00:29:28;4;2;
77515;PMS5003;66627;29.424;-98.496;2023-04-06T00:31:53;1;1;
77515;PMS5003;66627;29.424;-98.496;2023-04-06T00:34:18;1;1;
77515;PMS5003;66627;29.424;-98.496;2023-04-06T00:36:43;3;3;
77515;PMS5003;66627;29.424;-98.496;2023-04-06T00:39:09;0;0;
77515;PMS5003;66627;29.424;-98.496;2023-04-06T00:41:34;2;2;
77515;PMS5003;66627;29.424;-98.496;2023-04-06T00:43:59;0;0;
77515;PMS5003;66627;29.424;-98.496;2023-04-06T00:46:24;1;1;
77515;PMS5003;66627;29.424;-98.496;2023-04-06T00:48:51;2;2;
77515;PMS5003;66627;29.424;-98.496;2023-04-06T00:51:14;1;1;
77515;PMS5003;66627;29.424;-98.496;2023-04-06T00:53:40;1;1;
77515;PMS5003;66627;29.424;-98.496;2023-04-06T00:56:05;1;1;
77515;PMS5003;66627;29.424;-98.496;2023-04-06T00:58:30;2;2;
77515;PMS5003;66627;29.424;-98.496;2023-04-06T01:00:55;2;2;
77515;PMS5003;66627;29.424;-98.496;2023-04-06T01:03:21;1;1;
77515;PMS5003;66627;29.424;-98.496;2023-04-06T01:05:46;2;2;
77515;PMS5003;66627;29.424;-98.496;2023-04-06T01:08:11;3;2;
77515;PMS5003;66627;29.424;-98.496;2023-04-06T01:10:36;2;2;
77515;PMS5003;66627;29.424;-98.496;2023-04-06T01:13:01;1;1;
77515;PMS5003;66627;29.424;-98.496;2023-04-06T01:15:27;1;1;
77515;PMS5003;66627;29.424;-98.496;2023-04-06T01:17:51;1;1;
77515;PMS5003;66627;29.424;-98.496;2023-04-06T01:20:17;1;1;
77515;PMS5003;66627;29.424;-98.496;2023-04-06T01:22:42;1;1;
77515;PMS5003;66627;29.424;-98.496;2023-04-06T01:25:08;3;1;
77515;PMS5003;66627;29.424;-98.496;2023-04-06T01:27:32;2;1;
77515;PMS5003;66627;29.424;-98.496;2023-04-06T01:29:57;0;0;
77515;PMS5003;66627;29.424;-98.496;2023-04-06T01:32:22;1;0;
77515;PMS5003;66627;29.424;-98.496;2023-04-06T01:34:48;0;0;
77515;PMS5003;66627;29.424;-98.496;2023-04-06T01:37:13;2;2;
77515;PMS5003;66627;29.424;-98.496;2023-04-06T01:39:38;2;1;
77515;PMS5003;66627;29.424;-98.496;2023-04-06T01:42:04;0;0;
77515;PMS5003;66627;29.424;-98.496;2023-04-06T01:44:28;0;0;
77515;PMS5003;66627;29.424;-98.496;2023-04-06T01:46:54;0;0;
77515;PMS5003;66627;29.424;-98.496;2023-04-06T01:49:19;1;1;
77515;PMS5003;66627;29.424;-98.496;2023-04-06T01:51:44;1;1;
77515;PMS5003;66627;29.424;-98.496;2023-04-06T01:54:09;2;1;
77515;PMS5003;66627;29.424;-98.496;2023-04-06T01:56:34;1;1;
77515;PMS5003;66627;29.424;-98.496;2023-04-06T01:59:00;1;1;
77515;PMS5003;66627;29.424;-98.496;2023-04-06T02:01:25;0;0;
77515;PMS5003;66627;29.424;-98.496;2023-04-06T02:03:50;0;0;
77515;PMS5003;66627;29.424;-98.496;2023-04-06T02:06:15;2;2;
77515;PMS5003;66627;29.424;-98.496;2023-04-06T02:08:40;1;1;
77515;PMS5003;66627;29.424;-98.496;2023-04-06T02:11:05;3;3;
77515;PMS5003;66627;29.424;-98.496;2023-04-06T02:13:31;1;1;
77515;PMS5003;66627;29.424;-98.496;2023-04-06T02:15:56;0;0;
77515;PMS5003;66627;29.424;-98.496;2023-04-06T02:18:21;0;0;
77515;PMS5003;66627;29.424;-98.496;2023-04-06T02:20:46;1;1;
77515;PMS5003;66627;29.424;-98.496;2023-04-06T02:23:11;0;0;
77515;PMS5003;66627;29.424;-98.496;2023-04-06T02:25:36;0;0;
77515;PMS5003;66627;29.424;-98.496;2023-04-06T02:28:02;1;1;
77515;PMS5003;66627;29.424;-98.496;2023-04-06T02:30:27;0;0;
77515;PMS5003;66627;29.424;-98.496;2023-04-06T02:32:52;0;0;
77515;PMS5003;66627;29.424;-98.496;2023-04-06T02:35:17;1;1;
77515;PMS5003;66627;29.424;-98.496;2023-04-06T02:37:42;0;0;
77515;PMS5003;66627;29.424;-98.496;2023-04-06T02:40:08;1;1;
77515;PMS5003;66627;29.424;-98.496;2023-04-06T02:42:33;1;1;
77515;PMS5003;66627;29.424;-98.496;2023-04-06T02:44:58;0;0;
77515;PMS5003;66627;29.424;-98.496;2023-04-06T02:47:23;2;1;
77515;PMS5003;66627;29.424;-98.496;2023-04-06T02:49:48;1;1;
77515;PMS5003;66627;29.424;-98.496;2023-04-06T02:52:13;2;2;
77515;PMS5003;66627;29.424;-98.496;2023-04-06T02:54:39;1;1;
77515;PMS5003;66627;29.424;-98.496;2023-04-06T02:57:04;0;0;
77515;PMS5003;66627;29.424;-98.496;2023-04-06T02:59:29;1;1;
77515;PMS5003;66627;29.424;-98.496;2023-04-06T03:01:54;1;1;
77515;PMS5003;66627;29.424;-98.496;2023-04-06T03:04:19;1;0;
77515;PMS5003;66627;29.424;-98.496;2023-04-06T03:06:45;1;1;
77515;PMS5003;66627;29.424;-98.496;2023-04-06T03:09:10;0;0;
77515;PMS5003;66627;29.424;-98.496;2023-04-06T03:11:35;1;1;
77515;PMS5003;66627;29.424;-98.496;2023-04-06T03:14:00;0;0;
77515;PMS5003;66627;29.424;-98.496;2023-04-06T03:16:25;0;0;
77515;PMS5003;66627;29.424;-98.496;2023-04-06T03:18:51;0;0;
77515;PMS5003;66627;29.424;-98.496;2023-04-06T03:21:16;1;1;
77515;PMS5003;66627;29.424;-98.496;2023-04-06T03:23:41;0;0;
77515;PMS5003;66627;29.424;-98.496;2023-04-06T03:26:06;1;1;
77515;PMS5003;66627;29.424;-98.496;2023-04-06T03:28:31;2;0;
77515;PMS5003;66627;29.424;-98.496;2023-04-06T03:30:57;0;0;
77515;PMS5003;66627;29.424;-98.496;2023-04-06T03:33:27;2;2;
77515;PMS5003;66627;29.424;-98.496;2023-04-06T03:35:47;1;1;
77515;PMS5003;66627;29.424;-98.496;2023-04-06T03:38:12;0;0;
77515;PMS5003;66627;29.424;-98.496;2023-04-06T03:40:37;1;1;
77515;PMS5003;66627;29.424;-98.496;2023-04-06T03:43:03;2;0;
77515;PMS5003;66627;29.424;-98.496;2023-04-06T03:45:27;0;0;
77515;PMS5003;66627;29.424;-98.496;2023-04-06T03:47:53;1;1;
77515;PMS5003;66627;29.424;-98.496;2023-04-06T03:50:18;0;0;
77515;PMS5003;66627;29.424;-98.496;2023-04-06T03:52:43;1;1;
77515;PMS5003;66627;29.424;-98.496;2023-04-06T03:55:08;1;1;
77515;PMS5003;66627;29.424;-98.496;2023-04-06T03:57:33;1;1;
77515;PMS5003;66627;29.424;-98.496;2023-04-06T03:59:59;1;1;
77515;PMS5003;66627;29.424;-98.496;2023-04-06T04:02:24;1;1;
77515;PMS5003;66627;29.424;-98.496;2023-04-06T04:04:49;1;1;
77515;PMS5003;66627;29.424;-98.496;2023-04-06T04:07:15;0;0;
77515;PMS5003;66627;29.424;-98.496;2023-04-06T04:09:39;0;0;
77515;PMS5003;66627;29.424;-98.496;2023-04-06T04:12:05;2;2;
77515;PMS5003;66627;29.424;-98.496;2023-04-06T04:14:30;1;1;
77515;PMS5003;66627;29.424;-98.496;2023-04-06T04:16:55;1;1;
77515;PMS5003;66627;29.424;-98.496;2023-04-06T04:19:20;2;2;
77515;PMS5003;66627;29.424;-98.496;2023-04-06T04:21:46;2;1;
77515;PMS5003;66627;29.424;-98.496;2023-04-06T04:24:11;1;1;
77515;PMS5003;66627;29.424;-98.496;2023-04-06T04:26:36;0;0;
77515;PMS5003;66627;29.424;-98.496;2023-04-06T04:29:01;0;0;
77515;PMS5003;66627;29.424;-98.496;2023-04-06T04:31:26;0;0;
77515;PMS5003;66627;29.424;-98.496;2023-04-06T04:33:51;2;1;
77515;PMS5003;66627;29.424;-98.496;2023-04-06T04:36:17;1;1;
77515;PMS5003;66627;29.424;-98.496;2023-04-06T04:38:42;0;0;
77515;PMS5003;66627;29.424;-98.496;2023-04-06T04:41:07;1;1;
77515;PMS5003;66627;29.424;-98.496;2023-04-06T04:43:32;0;0;
77515;PMS5003;66627;29.424;-98.496;2023-04-06T04:46:01;1;1;
77515;PMS5003;66627;29.424;-98.496;2023-04-06T04:48:22;0;0;
77515;PMS5003;66627;29.424;-98.496;2023-04-06T04:50:48;1;1;
77515;PMS5003;66627;29.424;-98.496;2023-04-06T04:53:13;1;1;
77515;PMS5003;66627;29.424;-98.496;2023-04-06T04:55:38;0;0;
77515;PMS5003;66627;29.424;-98.496;2023-04-06T04:58:03;1;1;
77515;PMS5003;66627;29.424;-98.496;2023-04-06T05:00:28;1;0;
77515;PMS5003;66627;29.424;-98.496;2023-04-06T05:02:54;1;0;
77515;PMS5003;66627;29.424;-98.496;2023-04-06T05:05:19;1;1;
77515;PMS5003;66627;29.424;-98.496;2023-04-06T05:07:44;0;0;
77515;PMS5003;66627;29.424;-98.496;2023-04-06T05:10:10;0;0;
77515;PMS5003;66627;29.424;-98.496;2023-04-06T05:12:34;0;0;
77515;PMS5003;66627;29.424;-98.496;2023-04-06T05:15:00;0;0;
77515;PMS5003;66627;29.424;-98.496;2023-04-06T05:17:25;1;1;
77515;PMS5003;66627;29.424;-98.496;2023-04-06T05:19:50;1;1;
77515;PMS5003;66627;29.424;-98.496;2023-04-06T05:22:16;1;0;
77515;PMS5003;66627;29.424;-98.496;2023-04-06T05:24:41;2;1;
77515;PMS5003;66627;29.424;-98.496;2023-04-06T05:27:06;1;1;
77515;PMS5003;66627;29.424;-98.496;2023-04-06T05:29:31;3;1;
77515;PMS5003;66627;29.424;-98.496;2023-04-06T05:31:56;1;1;
77515;PMS5003;66627;29.424;-98.496;2023-04-06T05:34:21;1;1;
77515;PMS5003;66627;29.424;-98.496;2023-04-06T05:36:47;1;1;
77515;PMS5003;66627;29.424;-98.496;2023-04-06T05:39:12;1;1;
77515;PMS5003;66627;29.424;-98.496;2023-04-06T05:41:37;0;0;
77515;PMS5003;66627;29.424;-98.496;2023-04-06T05:44:02;0;0;
77515;PMS5003;66627;29.424;-98.496;2023-04-06T05:46:27;0;0;
77515;PMS5003;66627;29.424;-98.496;2023-04-06T05:48:52;3;1;
77515;PMS5003;66627;29.424;-98.496;2023-04-06T05:51:18;0;0;
77515;PMS5003;66627;29.424;-98.496;2023-04-06T05:53:43;2;2;
77515;PMS5003;66627;29.424;-98.496;2023-04-06T05:56:08;2;1;
77515;PMS5003;66627;29.424;-98.496;2023-04-06T05:58:33;0;0;
77515;PMS5003;66627;29.424;-98.496;2023-04-06T06:00:59;1;1;
77515;PMS5003;66627;29.424;-98.496;2023-04-06T06:03:24;1;1;
77515;PMS5003;66627;29.424;-98.496;2023-04-06T06:05:50;1;1;
77515;PMS5003;66627;29.424;-98.496;2023-04-06T06:08:14;0;0;
77515;PMS5003;66627;29.424;-98.496;2023-04-06T06:10:39;1;1;
77515;PMS5003;66627;29.424;-98.496;2023-04-06T06:13:04;0;0;
77515;PMS5003;66627;29.424;-98.496;2023-04-06T06:15:30;0;0;
77515;PMS5003;66627;29.424;-98.496;2023-04-06T06:17:55;0;0;
77515;PMS5003;66627;29.424;-98.496;2023-04-06T06:20:21;0;0;
77515;PMS5003;66627;29.424;-98.496;2023-04-06T06:22:45;0;0;
77515;PMS5003;66627;29.424;-98.496;2023-04-06T06:25:11;2;2;
77515;PMS5003;66627;29.424;-98.496;2023-04-06T06:27:36;1;1;
77515;PMS5003;66627;29.424;-98.496;2023-04-06T06:30:01;0;0;
77515;PMS5003;66627;29.424;-98.496;2023-04-06T06:32:26;2;1;
77515;PMS5003;66627;29.424;-98.496;2023-04-06T06:34:51;1;1;
77515;PMS5003;66627;29.424;-98.496;2023-04-06T06:37:17;0;0;
77515;PMS5003;66627;29.424;-98.496;2023-04-06T06:39:42;0;0;
77515;PMS5003;66627;29.424;-98.496;2023-04-06T06:42:07;1;1;
77515;PMS5003;66627;29.424;-98.496;2023-04-06T06:44:32;2;2;
77515;PMS5003;66627;29.424;-98.496;2023-04-06T06:46:57;2;1;
77515;PMS5003;66627;29.424;-98.496;2023-04-06T06:49:22;1;1;
77515;PMS5003;66627;29.424;-98.496;2023-04-06T06:51:48;2;1;
77515;PMS5003;66627;29.424;-98.496;2023-04-06T06:54:13;2;0;
77515;PMS5003;66627;29.424;-98.496;2023-04-06T06:56:38;0;0;
77515;PMS5003;66627;29.424;-98.496;2023-04-06T06:59:03;3;2;
77515;PMS5003;66627;29.424;-98.496;2023-04-06T07:01:29;1;1;
77515;PMS5003;66627;29.424;-98.496;2023-04-06T07:03:54;2;2;
77515;PMS5003;66627;29.424;-98.496;2023-04-06T07:06:19;2;2;
77515;PMS5003;66627;29.424;-98.496;2023-04-06T07:08:44;0;0;
77515;PMS5003;66627;29.424;-98.496;2023-04-06T07:11:10;1;1;
77515;PMS5003;66627;29.424;-98.496;2023-04-06T07:13:35;4;1;
77515;PMS5003;66627;29.424;-98.496;2023-04-06T07:16:00;2;2;
77515;PMS5003;66627;29.424;-98.496;2023-04-06T07:18:25;0;0;
77515;PMS5003;66627;29.424;-98.496;2023-04-06T07:20:50;1;1;
77515;PMS5003;66627;29.424;-98.496;2023-04-06T07:23:16;2;2;
77515;PMS5003;66627;29.424;-98.496;2023-04-06T07:25:41;0;0;
77515;PMS5003;66627;29.424;-98.496;2023-04-06T07:28:06;1;1;
77515;PMS5003;66627;29.424;-98.496;2023-04-06T07:30:31;1;1;
77515;PMS5003;66627;29.424;-98.496;2023-04-06T07:32:57;2;2;
77515;PMS5003;66627;29.424;-98.496;2023-04-06T07:35:22;3;1;
77515;PMS5003;66627;29.424;-98.496;2023-04-06T07:37:47;1;1;
77515;PMS5003;66627;29.424;-98.496;2023-04-06T07:40:12;2;2;
77515;PMS5003;66627;29.424;-98.496;2023-04-06T07:42:38;1;1;
77515;PMS5003;66627;29.424;-98.496;2023-04-06T07:45:03;3;2;
77515;PMS5003;66627;29.424;-98.496;2023-04-06T07:47:28;2;2;
77515;PMS5003;66627;29.424;-98.496;2023-04-06T07:49:54;1;1;
77515;PMS5003;66627;29.424;-98.496;2023-04-06T07:52:19;1;1;
77515;PMS5003;66627;29.424;-98.496;2023-04-06T07:54:44;1;1;
77515;PMS5003;66627;29.424;-98.496;2023-04-06T07:57:09;1;1;
77515;PMS5003;66627;29.424;-98.496;2023-04-06T07:59:34;1;1;
77515;PMS5003;66627;29.424;-98.496;2023-04-06T08:02:00;1;1;
77515;PMS5003;66627;29.424;-98.496;2023-04-06T08:04:25;3;3;
77515;PMS5003;66627;29.424;-98.496;2023-04-06T08:06:51;2;2;
77515;PMS5003;66627;29.424;-98.496;2023-04-06T08:09:15;2;2;
77515;PMS5003;66627;29.424;-98.496;2023-04-06T08:11:41;0;0;
77515;PMS5003;66627;29.424;-98.496;2023-04-06T08:14:06;1;0;
77515;PMS5003;66627;29.424;-98.496;2023-04-06T08:16:31;1;1;
77515;PMS5003;66627;29.424;-98.496;2023-04-06T08:18:57;2;2;
77515;PMS5003;66627;29.424;-98.496;2023-04-06T08:21:22;0;0;
77515;PMS5003;66627;29.424;-98.496;2023-04-06T08:23:47;1;1;
77515;PMS5003;66627;29.424;-98.496;2023-04-06T08:26:12;1;1;
77515;PMS5003;66627;29.424;-98.496;2023-04-06T08:28:37;1;1;
77515;PMS5003;66627;29.424;-98.496;2023-04-06T08:31:03;1;1;
77515;PMS5003;66627;29.424;-98.496;2023-04-06T08:33:28;0;0;
77515;PMS5003;66627;29.424;-98.496;2023-04-06T08:35:53;1;1;
77515;PMS5003;66627;29.424;-98.496;2023-04-06T08:38:18;1;1;
77515;PMS5003;66627;29.424;-98.496;2023-04-06T08:40:43;3;2;
77515;PMS5003;66627;29.424;-98.496;2023-04-06T08:43:12;3;2;
77515;PMS5003;66627;29.424;-98.496;2023-04-06T08:45:34;2;2;
77515;PMS5003;66627;29.424;-98.496;2023-04-06T08:47:59;2;2;
77515;PMS5003;66627;29.424;-98.496;2023-04-06T08:50:25;1;1;
77515;PMS5003;66627;29.424;-98.496;2023-04-06T08:52:50;1;1;
77515;PMS5003;66627;29.424;-98.496;2023-04-06T08:55:15;1;1;
77515;PMS5003;66627;29.424;-98.496;2023-04-06T08:57:40;0;0;
77515;PMS5003;66627;29.424;-98.496;2023-04-06T09:00:06;0;0;
77515;PMS5003;66627;29.424;-98.496;2023-04-06T09:02:31;2;2;
77515;PMS5003;66627;29.424;-98.496;2023-04-06T09:04:57;1;1;
77515;PMS5003;66627;29.424;-98.496;2023-04-06T09:07:22;2;2;
77515;PMS5003;66627;29.424;-98.496;2023-04-06T09:09:47;1;1;
77515;PMS5003;66627;29.424;-98.496;2023-04-06T09:14:38;3;1;
77515;PMS5003;66627;29.424;-98.496;2023-04-06T09:17:03;1;1;
77515;PMS5003;66627;29.424;-98.496;2023-04-06T09:19:28;3;1;
77515;PMS5003;66627;29.424;-98.496;2023-04-06T09:24:19;1;1;
77515;PMS5003;66627;29.424;-98.496;2023-04-06T09:26:45;1;1;
77515;PMS5003;66627;29.424;-98.496;2023-04-06T09:29:09;0;0;
77515;PMS5003;66627;29.424;-98.496;2023-04-06T09:31:34;3;2;
77515;PMS5003;66627;29.424;-98.496;2023-04-06T09:34:00;0;0;
77515;PMS5003;66627;29.424;-98.496;2023-04-06T09:36:30;1;1;
77515;PMS5003;66627;29.424;-98.496;2023-04-06T09:38:52;2;2;
77515;PMS5003;66627;29.424;-98.496;2023-04-06T09:43:41;0;0;
77515;PMS5003;66627;29.424;-98.496;2023-04-06T09:46:06;1;1;
77515;PMS5003;66627;29.424;-98.496;2023-04-06T09:48:31;0;0;
77515;PMS5003;66627;29.424;-98.496;2023-04-06T09:50:58;1;1;
77515;PMS5003;66627;29.424;-98.496;2023-04-06T09:53:21;2;2;
77515;PMS5003;66627;29.424;-98.496;2023-04-06T09:55:47;0;0;
77515;PMS5003;66627;29.424;-98.496;2023-04-06T09:58:13;1;1;
77515;PMS5003;66627;29.424;-98.496;2023-04-06T10:00:40;2;2;
77515;PMS5003;66627;29.424;-98.496;2023-04-06T10:03:04;1;1;
77515;PMS5003;66627;29.424;-98.496;2023-04-06T10:05:30;1;1;
77515;PMS5003;66627;29.424;-98.496;2023-04-06T10:07:54;2;2;
77515;PMS5003;66627;29.424;-98.496;2023-04-06T10:10:18;1;1;
77515;PMS5003;66627;29.424;-98.496;2023-04-06T10:12:44;0;0;
77515;PMS5003;66627;29.424;-98.496;2023-04-06T10:15:09;1;1;
77515;PMS5003;66627;29.424;-98.496;2023-04-06T10:17:34;1;1;
77515;PMS5003;66627;29.424;-98.496;2023-04-06T10:20:04;2;2;
77515;PMS5003;66627;29.424;-98.496;2023-04-06T10:22:26;0;0;
77515;PMS5003;66627;29.424;-98.496;2023-04-06T10:24:50;1;1;
77515;PMS5003;66627;29.424;-98.496;2023-04-06T10:27:15;1;1;
77515;PMS5003;66627;29.424;-98.496;2023-04-06T10:29:42;1;1;
77515;PMS5003;66627;29.424;-98.496;2023-04-06T10:32:05;1;1;
77515;PMS5003;66627;29.424;-98.496;2023-04-06T10:34:34;1;1;
77515;PMS5003;66627;29.424;-98.496;2023-04-06T10:36:56;1;1;
77515;PMS5003;66627;29.424;-98.496;2023-04-06T10:39:24;1;1;
77515;PMS5003;66627;29.424;-98.496;2023-04-06T10:41:46;1;1;
77515;PMS5003;66627;29.424;-98.496;2023-04-06T10:46:37;1;1;
77515;PMS5003;66627;29.424;-98.496;2023-04-06T10:49:11;2;2;
77515;PMS5003;66627;29.424;-98.496;2023-04-06T10:51:28;2;2;
77515;PMS5003;66627;29.424;-98.496;2023-04-06T10:53:53;0;0;
77515;PMS5003;66627;29.424;-98.496;2023-04-06T10:56:18;0;0;
77515;PMS5003;66627;29.424;-98.496;2023-04-06T10:58:44;1;1;
77515;PMS5003;66627;29.424;-98.496;2023-04-06T11:01:08;1;1;
77515;PMS5003;66627;29.424;-98.496;2023-04-06T11:05:59;2;2;
77515;PMS5003;66627;29.424;-98.496;2023-04-06T11:08:26;10;6;
77515;PMS5003;66627;29.424;-98.496;2023-04-06T11:10:50;3;2;
77515;PMS5003;66627;29.424;-98.496;2023-04-06T11:13:15;3;2;
77515;PMS5003;66627;29.424;-98.496;2023-04-06T11:15:41;3;2;
77515;PMS5003;66627;29.424;-98.496;2023-04-06T11:18:06;1;1;
77515;PMS5003;66627;29.424;-98.496;2023-04-06T11:20:31;2;2;
77515;PMS5003;66627;29.424;-98.496;2023-04-06T11:22:56;3;3;
77515;PMS5003;66627;29.424;-98.496;2023-04-06T11:25:21;1;1;
77515;PMS5003;66627;29.424;-98.496;2023-04-06T11:27:47;4;3;
77515;PMS5003;66627;29.424;-98.496;2023-04-06T11:30:12;5;4;
77515;PMS5003;66627;29.424;-98.496;2023-04-06T11:32:39;3;2;
77515;PMS5003;66627;29.424;-98.496;2023-04-06T11:35:03;3;3;
77515;PMS5003;66627;29.424;-98.496;2023-04-06T11:37:28;4;2;
77515;PMS5003;66627;29.424;-98.496;2023-04-06T11:39:54;4;4;
77515;PMS5003;66627;29.424;-98.496;2023-04-06T11:42:22;4;3;
77515;PMS5003;66627;29.424;-98.496;2023-04-06T11:44:44;1;1;
77515;PMS5003;66627;29.424;-98.496;2023-04-06T11:47:09;2;2;
77515;PMS5003;66627;29.424;-98.496;2023-04-06T11:49:36;3;3;
77515;PMS5003;66627;29.424;-98.496;2023-04-06T11:52:00;3;3;
77515;PMS5003;66627;29.424;-98.496;2023-04-06T11:54:31;1;1;
77515;PMS5003;66627;29.424;-98.496;2023-04-06T11:56:50;1;1;
77515;PMS5003;66627;29.424;-98.496;2023-04-06T11:59:17;3;3;
77515;PMS5003;66627;29.424;-98.496;2023-04-06T12:01:44;3;3;
77515;PMS5003;66627;29.424;-98.496;2023-04-06T12:04:06;4;4;
77515;PMS5003;66627;29.424;-98.496;2023-04-06T12:06:31;5;4;
77515;PMS5003;66627;29.424;-98.496;2023-04-06T12:08:57;3;3;
77515;PMS5003;66627;29.424;-98.496;2023-04-06T12:11:22;3;3;
77515;PMS5003;66627;29.424;-98.496;2023-04-06T12:13:47;7;4;
77515;PMS5003;66627;29.424;-98.496;2023-04-06T12:16:13;4;4;
77515;PMS5003;66627;29.424;-98.496;2023-04-06T12:18:38;1;1;
77515;PMS5003;66627;29.424;-98.496;2023-04-06T12:21:04;3;3;
77515;PMS5003;66627;29.424;-98.496;2023-04-06T12:23:28;2;2;
77515;PMS5003;66627;29.424;-98.496;2023-04-06T12:25:54;4;4;
77515;PMS5003;66627;29.424;-98.496;2023-04-06T12:28:19;4;3;
77515;PMS5003;66627;29.424;-98.496;2023-04-06T12:30:44;4;4;
77515;PMS5003;66627;29.424;-98.496;2023-04-06T12:33:10;5;4;
77515;PMS5003;66627;29.424;-98.496;2023-04-06T12:35:36;3;3;
77515;PMS5003;66627;29.424;-98.496;2023-04-06T12:38:00;2;2;
77515;PMS5003;66627;29.424;-98.496;2023-04-06T12:40:25;3;3;
77515;PMS5003;66627;29.424;-98.496;2023-04-06T12:42:51;2;2;
77515;PMS5003;66627;29.424;-98.496;2023-04-06T12:45:16;5;5;
77515;PMS5003;66627;29.424;-98.496;2023-04-06T12:47:41;3;3;
77515;PMS5003;66627;29.424;-98.496;2023-04-06T12:50:07;3;3;
77515;PMS5003;66627;29.424;-98.496;2023-04-06T12:52:32;3;3;
77515;PMS5003;66627;29.424;-98.496;2023-04-06T12:54:57;3;3;
77515;PMS5003;66627;29.424;-98.496;2023-04-06T12:57:23;4;3;
77515;PMS5003;66627;29.424;-98.496;2023-04-06T12:59:48;5;5;
77515;PMS5003;66627;29.424;-98.496;2023-04-06T13:02:13;4;4;
77515;PMS5003;66627;29.424;-98.496;2023-04-06T13:04:38;5;5;
77515;PMS5003;66627;29.424;-98.496;2023-04-06T13:07:04;5;4;
77515;PMS5003;66627;29.424;-98.496;2023-04-06T13:09:29;2;2;
77515;PMS5003;66627;29.424;-98.496;2023-04-06T13:11:54;4;3;
77515;PMS5003;66627;29.424;-98.496;2023-04-06T13:14:20;3;3;
77515;PMS5003;66627;29.424;-98.496;2023-04-06T13:16:45;4;4;
77515;PMS5003;66627;29.424;-98.496;2023-04-06T13:19:10;4;4;
77515;PMS5003;66627;29.424;-98.496;2023-04-06T13:21:35;4;4;
77515;PMS5003;66627;29.424;-98.496;2023-04-06T13:24:01;4;4;
77515;PMS5003;66627;29.424;-98.496;2023-04-06T13:26:26;3;3;
77515;PMS5003;66627;29.424;-98.496;2023-04-06T13:28:52;4;2;
77515;PMS5003;66627;29.424;-98.496;2023-04-06T13:31:16;5;4;
77515;PMS5003;66627;29.424;-98.496;2023-04-06T13:33:42;5;3;
77515;PMS5003;66627;29.424;-98.496;2023-04-06T13:36:07;4;3;
77515;PMS5003;66627;29.424;-98.496;2023-04-06T13:38:32;3;3;
77515;PMS5003;66627;29.424;-98.496;2023-04-06T13:40:58;3;3;
77515;PMS5003;66627;29.424;-98.496;2023-04-06T13:43:24;4;4;
77515;PMS5003;66627;29.424;-98.496;2023-04-06T13:45:49;4;4;
77515;PMS5003;66627;29.424;-98.496;2023-04-06T13:48:14;4;3;
77515;PMS5003;66627;29.424;-98.496;2023-04-06T13:50:40;4;4;
77515;PMS5003;66627;29.424;-98.496;2023-04-06T13:53:05;2;2;
77515;PMS5003;66627;29.424;-98.496;2023-04-06T13:55:31;8;6;
77515;PMS5003;66627;29.424;-98.496;2023-04-06T13:57:56;2;2;
77515;PMS5003;66627;29.424;-98.496;2023-04-06T14:00:22;4;4;
77515;PMS5003;66627;29.424;-98.496;2023-04-06T14:02:47;2;2;
77515;PMS5003;66627;29.424;-98.496;2023-04-06T14:05:13;5;4;
77515;PMS5003;66627;29.424;-98.496;2023-04-06T14:07:38;3;3;
77515;PMS5003;66627;29.424;-98.496;2023-04-06T14:10:03;4;4;
77515;PMS5003;66627;29.424;-98.496;2023-04-06T14:12:28;3;3;
77515;PMS5003;66627;29.424;-98.496;2023-04-06T14:14:54;3;3;
77515;PMS5003;66627;29.424;-98.496;2023-04-06T14:17:19;4;4;
77515;PMS5003;66627;29.424;-98.496;2023-04-06T14:19:44;3;3;
77515;PMS5003;66627;29.424;-98.496;2023-04-06T14:22:10;3;3;
77515;PMS5003;66627;29.424;-98.496;2023-04-06T14:24:35;3;3;
77515;PMS5003;66627;29.424;-98.496;2023-04-06T14:27:00;3;3;
77515;PMS5003;66627;29.424;-98.496;2023-04-06T14:29:25;4;3;
77515;PMS5003;66627;29.424;-98.496;2023-04-06T14:31:50;3;3;
77515;PMS5003;66627;29.424;-98.496;2023-04-06T14:34:16;4;4;
77515;PMS5003;66627;29.424;-98.496;2023-04-06T14:36:41;4;4;
77515;PMS5003;66627;29.424;-98.496;2023-04-06T14:39:06;2;2;
77515;PMS5003;66627;29.424;-98.496;2023-04-06T14:41:32;4;4;
77515;PMS5003;66627;29.424;-98.496;2023-04-06T14:43:57;4;4;
77515;PMS5003;66627;29.424;-98.496;2023-04-06T14:46:22;5;5;
77515;PMS5003;66627;29.424;-98.496;2023-04-06T14:48:48;3;3;
77515;PMS5003;66627;29.424;-98.496;2023-04-06T14:51:13;3;3;
77515;PMS5003;66627;29.424;-98.496;2023-04-06T14:53:38;4;4;
77515;PMS5003;66627;29.424;-98.496;2023-04-06T14:56:03;3;3;
77515;PMS5003;66627;29.424;-98.496;2023-04-06T14:58:28;4;4;
77515;PMS5003;66627;29.424;-98.496;2023-04-06T15:00:55;5;3;
77515;PMS5003;66627;29.424;-98.496;2023-04-06T15:03:19;3;3;
77515;PMS5003;66627;29.424;-98.496;2023-04-06T15:05:44;3;3;
77515;PMS5003;66627;29.424;-98.496;2023-04-06T15:08:10;6;4;
77515;PMS5003;66627;29.424;-98.496;2023-04-06T15:10:35;3;3;
77515;PMS5003;66627;29.424;-98.496;2023-04-06T15:13:01;5;5;
77515;PMS5003;66627;29.424;-98.496;2023-04-06T15:15:25;4;4;
77515;PMS5003;66627;29.424;-98.496;2023-04-06T15:17:50;5;4;
77515;PMS5003;66627;29.424;-98.496;2023-04-06T15:20:16;4;4;
77515;PMS5003;66627;29.424;-98.496;2023-04-06T15:22:41;7;7;
77515;PMS5003;66627;29.424;-98.496;2023-04-06T15:25:07;4;4;
77515;PMS5003;66627;29.424;-98.496;2023-04-06T15:27:32;5;5;
77515;PMS5003;66627;29.424;-98.496;2023-04-06T15:29:57;4;4;
77515;PMS5003;66627;29.424;-98.496;2023-04-06T15:32:23;5;3;
77515;PMS5003;66627;29.424;-98.496;2023-04-06T15:34:48;3;3;
77515;PMS5003;66627;29.424;-98.496;2023-04-06T15:37:14;6;4;
77515;PMS5003;66627;29.424;-98.496;2023-04-06T15:39:39;3;2;
77515;PMS5003;66627;29.424;-98.496;2023-04-06T15:42:04;5;4;
77515;PMS5003;66627;29.424;-98.496;2023-04-06T15:44:30;3;3;
77515;PMS5003;66627;29.424;-98.496;2023-04-06T15:46:55;3;3;
77515;PMS5003;66627;29.424;-98.496;2023-04-06T15:49:20;3;3;
77515;PMS5003;66627;29.424;-98.496;2023-04-06T15:51:46;4;4;
77515;PMS5003;66627;29.424;-98.496;2023-04-06T15:54:10;3;3;
77515;PMS5003;66627;29.424;-98.496;2023-04-06T15:56:36;4;4;
77515;PMS5003;66627;29.424;-98.496;2023-04-06T15:59:01;4;3;
77515;PMS5003;66627;29.424;-98.496;2023-04-06T16:01:26;5;5;
77515;PMS5003;66627;29.424;-98.496;2023-04-06T16:03:52;4;4;
77515;PMS5003;66627;29.424;-98.496;2023-04-06T16:06:17;5;5;
77515;PMS5003;66627;29.424;-98.496;2023-04-06T16:08:43;5;5;
77515;PMS5003;66627;29.424;-98.496;2023-04-06T16:11:08;3;3;
77515;PMS5003;66627;29.424;-98.496;2023-04-06T16:13:33;5;5;
77515;PMS5003;66627;29.424;-98.496;2023-04-06T16:15:59;10;8;